createdAt,value
2022-07-30T00:01:14.220Z,6.05
2022-07-30T00:03:45.649Z,4.40
2022-07-30T00:06:23.542Z,3.47
2022-07-30T00:08:53.955Z,4.22
2022-07-30T00:11:27.640Z,3.40
2022-07-30T00:13:58.697Z,6.22
2022-07-30T00:16:55.775Z,5.05
2022-07-30T00:21:56.371Z,7.05
2022-07-30T00:24:26.648Z,4.65
2022-07-30T00:26:56.628Z,2.90
2022-07-30T00:29:27.241Z,4.43
2022-07-30T00:31:57.128Z,3.20
2022-07-30T00:34:28.782Z,3.20
2022-07-30T00:36:58.841Z,4.97
2022-07-30T00:39:31.221Z,4.25
2022-07-30T00:42:05.656Z,1.60
2022-07-30T00:44:35.576Z,7.70
2022-07-30T00:47:05.901Z,1.67
2022-07-30T00:49:36.170Z,1.80
2022-07-30T00:52:08.814Z,2.50
2022-07-30T00:54:40.006Z,3.75
2022-07-30T00:57:09.987Z,4.43
2022-07-30T00:59:39.888Z,3.15
2022-07-30T01:02:17.295Z,2.88
2022-07-30T01:04:47.431Z,3.65
2022-07-30T01:07:17.952Z,4.05
2022-07-30T01:09:48.521Z,1.83
2022-07-30T01:12:20.482Z,2.15
2022-07-30T01:14:50.808Z,3.17
2022-07-30T01:17:21.078Z,9.07
2022-07-30T01:19:53.923Z,4.90
2022-07-30T01:22:32.512Z,2.30
2022-07-30T01:25:11.879Z,4.30
2022-07-30T01:27:46.056Z,5.53
2022-07-30T01:30:16.985Z,11.27
2022-07-30T01:32:48.115Z,3.80
2022-07-30T01:35:19.201Z,3.13
2022-07-30T01:37:49.730Z,3.50
2022-07-30T01:40:19.708Z,4.07
2022-07-30T01:42:51.395Z,3.20
2022-07-30T01:45:21.919Z,3.72
2022-07-30T01:47:53.096Z,1.88
2022-07-30T01:50:29.203Z,1.77
2022-07-30T01:55:43.105Z,1.95
2022-07-30T01:58:40.431Z,1.83
2022-07-30T02:04:28.794Z,1.58
2022-07-30T02:10:47.811Z,2.92
2022-07-30T02:14:02.287Z,1.98
2022-07-30T02:37:41.479Z,3.00
2022-07-30T03:09:28.617Z,2.45
2022-07-30T03:12:14.572Z,1.25
2022-07-30T03:17:56.693Z,1.83
2022-07-30T03:20:44.689Z,1.65
2022-07-30T03:23:21.400Z,1.92
2022-07-30T03:25:54.466Z,3.15
2022-07-30T03:28:25.626Z,1.30
2022-07-30T03:30:58.823Z,1.35
2022-07-30T03:33:38.200Z,1.85
2022-07-30T03:36:08.856Z,2.65
2022-07-30T03:38:42.555Z,1.73
2022-07-30T03:41:13.480Z,1.00
2022-07-30T03:43:43.974Z,0.80
2022-07-30T03:46:18.371Z,2.00
2022-07-30T03:48:51.689Z,0.77
2022-07-30T03:51:22.099Z,1.40
2022-07-30T03:53:54.412Z,2.58
2022-07-30T03:56:24.722Z,1.60
2022-07-30T03:58:54.807Z,3.13
2022-07-30T04:01:29.876Z,1.85
2022-07-30T04:04:07.674Z,3.17
2022-07-30T04:06:43.496Z,3.03
2022-07-30T04:09:14.097Z,1.60
2022-07-30T04:11:44.108Z,2.13
2022-07-30T04:14:17.479Z,1.35
2022-07-30T04:16:52.944Z,3.03
2022-07-30T04:19:26.191Z,0.88
2022-07-30T04:21:57.083Z,3.65
2022-07-30T04:24:29.215Z,0.93
2022-07-30T04:27:00.720Z,6.13
2022-07-30T04:29:31.160Z,1.42
2022-07-30T04:32:02.246Z,0.82
2022-07-30T04:34:33.109Z,1.73
2022-07-30T04:37:03.407Z,1.95
2022-07-30T04:39:33.550Z,1.17
2022-07-30T04:42:03.589Z,1.33
2022-07-30T04:44:33.540Z,2.40
2022-07-30T04:47:04.006Z,0.93
2022-07-30T04:49:34.321Z,1.05
2022-07-30T04:52:05.384Z,1.02
2022-07-30T04:54:43.813Z,0.63
2022-07-30T04:57:15.885Z,0.45
2022-07-30T04:59:46.189Z,1.25
2022-07-30T05:02:17.703Z,1.35
2022-07-30T05:04:48.502Z,1.15
2022-07-30T05:07:22.462Z,1.58
2022-07-30T05:09:53.102Z,1.23
2022-07-30T05:12:23.024Z,2.33
2022-07-30T05:14:53.352Z,0.93
2022-07-30T05:17:23.650Z,1.65
2022-07-30T05:19:53.514Z,0.68
2022-07-30T05:22:23.644Z,1.92
2022-07-30T05:24:53.566Z,1.65
2022-07-30T05:27:23.658Z,1.77
2022-07-30T05:29:55.456Z,0.55
2022-07-30T05:32:27.107Z,1.08
2022-07-30T05:35:01.068Z,0.68
2022-07-30T05:37:31.068Z,1.00
2022-07-30T05:40:02.508Z,1.00
2022-07-30T05:42:33.156Z,0.95
2022-07-30T05:45:03.085Z,1.38
2022-07-30T05:47:33.432Z,0.65
2022-07-30T05:50:05.377Z,1.08
2022-07-30T05:52:36.257Z,0.60
2022-07-30T05:55:06.579Z,2.05
2022-07-30T05:57:38.803Z,1.55
2022-07-30T06:00:13.378Z,1.20
2022-07-30T06:02:45.603Z,1.38
2022-07-30T06:05:15.600Z,0.80
2022-07-30T06:07:45.464Z,0.43
2022-07-30T06:10:15.360Z,1.75
2022-07-30T06:12:45.414Z,1.55
2022-07-30T06:15:16.614Z,1.63
2022-07-30T06:17:59.531Z,1.23
2022-07-30T06:20:31.648Z,1.42
2022-07-30T06:23:04.903Z,0.60
2022-07-30T06:25:37.196Z,0.70
2022-07-30T06:28:35.895Z,0.60
2022-07-30T06:31:02.218Z,0.73
2022-07-30T06:33:32.789Z,2.55
2022-07-30T06:36:02.973Z,0.90
2022-07-30T06:38:33.300Z,0.63
2022-07-30T06:41:04.649Z,1.17
2022-07-30T06:43:34.970Z,1.15
2022-07-30T06:46:06.748Z,2.35
2022-07-30T06:48:37.039Z,1.23
2022-07-30T06:51:07.072Z,1.85
2022-07-30T06:53:42.407Z,2.38
2022-07-30T06:56:13.021Z,2.03
2022-07-30T06:58:42.983Z,2.75
2022-07-30T07:01:12.896Z,1.23
2022-07-30T07:03:42.824Z,2.67
2022-07-30T07:06:12.830Z,2.03
2022-07-30T07:08:42.798Z,1.48
2022-07-30T07:11:13.413Z,2.22
2022-07-30T07:13:43.413Z,1.30
2022-07-30T07:16:13.442Z,1.92
2022-07-30T07:18:43.720Z,2.75
2022-07-30T07:21:13.723Z,2.88
2022-07-30T07:23:43.577Z,2.03
2022-07-30T07:26:16.280Z,1.17
2022-07-30T07:28:46.458Z,0.60
2022-07-30T07:32:05.314Z,1.63
2022-07-30T07:34:06.851Z,2.88
2022-07-30T07:36:37.886Z,1.42
2022-07-30T07:39:13.106Z,2.08
2022-07-30T07:41:48.645Z,3.15
2022-07-30T07:44:19.760Z,2.20
2022-07-30T07:46:50.119Z,2.67
2022-07-30T07:49:20.062Z,2.75
2022-07-30T07:51:51.108Z,2.55
2022-07-30T07:54:22.507Z,2.85
2022-07-30T07:56:53.725Z,0.82
2022-07-30T07:59:23.728Z,1.17
2022-07-30T08:02:03.914Z,1.02
2022-07-30T08:04:34.539Z,3.50
2022-07-30T08:07:04.826Z,2.13
2022-07-30T08:09:43.714Z,1.60
2022-07-30T08:12:15.509Z,2.30
2022-07-30T08:14:45.473Z,2.60
2022-07-30T08:17:15.763Z,1.33
2022-07-30T08:19:45.682Z,1.17
2022-07-30T08:22:15.688Z,1.30
2022-07-30T08:24:45.769Z,1.77
2022-07-30T08:27:15.682Z,1.67
2022-07-30T08:29:45.781Z,1.38
2022-07-30T08:32:16.283Z,5.18
2022-07-30T08:34:46.161Z,3.33
2022-07-30T08:37:17.072Z,1.65
2022-07-30T08:39:46.982Z,3.17
2022-07-30T08:42:18.409Z,1.80
2022-07-30T08:44:49.620Z,2.28
2022-07-30T08:47:20.673Z,3.03
2022-07-30T08:49:51.600Z,2.83
2022-07-30T08:52:21.930Z,4.53
2022-07-30T08:54:52.233Z,3.67
2022-07-30T08:57:25.567Z,4.25
2022-07-30T09:00:00.461Z,4.60
2022-07-30T09:05:01.132Z,6.57
2022-07-30T09:07:31.134Z,3.47
2022-07-30T09:10:01.406Z,5.30
2022-07-30T09:12:44.848Z,4.85
2022-07-30T09:15:18.860Z,4.53
2022-07-30T09:17:51.543Z,5.72
2022-07-30T09:20:22.685Z,4.95
2022-07-30T09:22:53.970Z,4.28
2022-07-30T09:25:39.162Z,4.38
2022-07-30T09:28:16.005Z,3.67
2022-07-30T09:30:48.060Z,6.65
2022-07-30T09:33:19.263Z,4.25
2022-07-30T09:35:59.027Z,4.38
2022-07-30T09:38:29.379Z,4.65
2022-07-30T09:41:04.829Z,4.60
2022-07-30T09:43:50.233Z,5.07
2022-07-30T09:46:20.658Z,4.57
2022-07-30T09:48:51.216Z,6.45
2022-07-30T09:51:24.075Z,6.32
2022-07-30T09:54:11.349Z,6.18
2022-07-30T09:56:53.791Z,6.18
2022-07-30T09:59:35.249Z,13.20
2022-07-30T10:02:10.023Z,5.90
2022-07-30T10:04:40.532Z,4.85
2022-07-30T10:07:25.150Z,7.80
2022-07-30T10:09:56.053Z,7.93
2022-07-30T10:12:28.437Z,6.95
2022-07-30T10:14:59.321Z,8.18
2022-07-30T10:17:30.704Z,4.43
2022-07-30T10:20:02.884Z,4.45
2022-07-30T10:22:38.150Z,3.53
2022-07-30T10:25:08.636Z,3.53
2022-07-30T10:27:39.166Z,3.10
2022-07-30T10:30:12.410Z,4.55
2022-07-30T10:32:44.367Z,5.65
2022-07-30T10:35:34.737Z,3.25
2022-07-30T10:38:04.978Z,3.75
2022-07-30T10:40:41.631Z,4.97
2022-07-30T10:43:31.693Z,4.18
2022-07-30T10:46:22.832Z,5.07
2022-07-30T10:48:53.365Z,3.88
2022-07-30T10:51:25.484Z,5.95
2022-07-30T10:54:05.163Z,6.38
2022-07-30T10:56:35.066Z,6.28
2022-07-30T10:59:10.647Z,7.15
2022-07-30T11:01:53.568Z,8.32
2022-07-30T11:04:30.716Z,9.05
2022-07-30T11:07:24.281Z,4.43
2022-07-30T11:10:04.874Z,4.40
2022-07-30T11:12:47.121Z,5.40
2022-07-30T11:15:23.850Z,3.55
2022-07-30T11:18:01.383Z,4.05
2022-07-30T11:20:32.206Z,2.60
2022-07-30T11:23:20.363Z,4.13
2022-07-30T11:25:54.801Z,3.70
2022-07-30T11:28:40.055Z,4.38
2022-07-30T11:31:55.031Z,3.90
2022-07-30T11:34:25.810Z,4.97
2022-07-30T11:37:21.886Z,6.05
2022-07-30T11:39:59.005Z,8.75
2022-07-30T11:42:28.988Z,9.30
2022-07-30T11:45:17.438Z,7.82
2022-07-30T11:47:48.007Z,7.10
2022-07-30T11:50:25.217Z,6.68
2022-07-30T11:53:00.341Z,13.80
2022-07-30T11:55:32.944Z,15.48
2022-07-30T11:58:04.440Z,12.32
2022-07-30T12:00:42.211Z,9.32
2022-07-30T12:03:16.941Z,7.45
2022-07-30T12:05:51.060Z,6.63
2022-07-30T12:08:33.508Z,6.55
2022-07-30T12:11:06.168Z,7.40
2022-07-30T12:13:43.775Z,7.15
2022-07-30T12:16:20.454Z,7.63
2022-07-30T12:18:50.430Z,7.70
2022-07-30T12:21:20.953Z,6.53
2022-07-30T12:24:00.937Z,5.60
2022-07-30T12:26:32.136Z,4.95
2022-07-30T12:29:03.433Z,5.18
2022-07-30T12:31:38.495Z,6.88
2022-07-30T12:34:23.148Z,5.80
2022-07-30T12:36:53.379Z,4.43
2022-07-30T12:39:25.031Z,2.88
2022-07-30T12:41:57.794Z,2.80
2022-07-30T12:44:36.890Z,4.65
2022-07-30T12:47:08.606Z,5.65
2022-07-30T12:49:49.463Z,9.52
2022-07-30T12:52:34.488Z,6.82
2022-07-30T12:55:05.068Z,6.75
2022-07-30T12:57:53.300Z,7.60
2022-07-30T13:00:23.504Z,7.78
2022-07-30T13:02:56.306Z,7.43
2022-07-30T13:05:48.762Z,4.40
2022-07-30T13:08:18.983Z,4.38
2022-07-30T13:10:59.296Z,3.05
2022-07-30T13:13:34.385Z,4.18
2022-07-30T13:16:05.641Z,4.97
2022-07-30T13:18:36.446Z,4.00
2022-07-30T13:21:33.612Z,4.95
2022-07-30T13:24:04.159Z,5.80
2022-07-30T13:26:36.126Z,6.95
2022-07-30T13:29:06.482Z,4.40
2022-07-30T13:31:43.099Z,6.82
2022-07-30T13:34:15.488Z,6.35
2022-07-30T13:36:45.400Z,4.60
2022-07-30T13:39:15.281Z,5.07
2022-07-30T13:41:45.170Z,5.30
2022-07-30T13:44:15.024Z,4.57
2022-07-30T13:46:46.249Z,5.93
2022-07-30T13:49:16.203Z,4.72
2022-07-30T13:51:46.707Z,5.65
2022-07-30T13:54:18.328Z,4.47
2022-07-30T13:57:09.128Z,4.38
2022-07-30T13:59:39.113Z,5.85
2022-07-30T14:02:09.279Z,7.32
2022-07-30T14:04:39.233Z,7.00
2022-07-30T14:07:15.428Z,5.75
2022-07-30T14:09:47.728Z,6.93
2022-07-30T14:12:31.246Z,6.18
2022-07-30T14:15:01.116Z,10.55
2022-07-30T14:17:31.116Z,10.75
2022-07-30T14:20:01.375Z,12.52
2022-07-30T14:22:31.289Z,11.52
2022-07-30T14:25:04.529Z,9.93
2022-07-30T14:27:34.469Z,8.93
2022-07-30T14:30:48.603Z,8.68
2022-07-30T14:33:09.942Z,11.25
2022-07-30T14:35:39.838Z,10.88
2022-07-30T14:38:09.760Z,11.45
2022-07-30T14:40:39.718Z,9.95
2022-07-30T14:43:09.556Z,12.75
2022-07-30T14:45:39.724Z,11.43
2022-07-30T14:48:10.006Z,15.00
2022-07-30T14:50:57.196Z,11.30
2022-07-30T14:53:29.978Z,10.90
2022-07-30T14:55:59.863Z,14.25
2022-07-30T14:58:29.759Z,10.93
2022-07-30T15:00:59.700Z,13.05
2022-07-30T15:03:46.112Z,13.32
2022-07-30T15:06:18.071Z,14.73
2022-07-30T15:08:48.538Z,14.88
2022-07-30T15:11:27.334Z,18.52
2022-07-30T15:14:12.411Z,12.50
2022-07-30T15:17:04.578Z,12.25
2022-07-30T15:19:50.304Z,13.35
2022-07-30T15:25:10.558Z,12.68
2022-07-30T15:28:28.028Z,12.80
2022-07-30T15:37:06.444Z,13.63
2022-07-30T15:39:37.360Z,9.75
2022-07-30T15:42:07.485Z,10.48
2022-07-30T15:44:42.282Z,12.18
2022-07-30T15:47:18.241Z,10.30
2022-07-30T15:49:48.263Z,12.55
2022-07-30T15:52:19.576Z,13.07
2022-07-30T15:54:49.885Z,12.73
2022-07-30T15:57:19.745Z,11.63
2022-07-30T15:59:50.050Z,11.73
2022-07-30T16:02:19.983Z,11.55
2022-07-30T16:04:50.038Z,13.18
2022-07-30T16:07:23.074Z,14.52
2022-07-30T16:09:52.944Z,17.40
2022-07-30T16:12:22.842Z,17.05
2022-07-30T16:14:52.714Z,27.08
2022-07-30T16:17:22.793Z,32.30
2022-07-30T16:19:52.645Z,71.10
2022-07-30T16:22:24.044Z,66.57
2022-07-30T16:24:54.771Z,43.15
2022-07-30T16:27:25.233Z,43.78
2022-07-30T16:29:55.497Z,49.45
2022-07-30T16:32:25.918Z,45.72
2022-07-30T16:34:55.916Z,55.85
2022-07-30T16:37:25.811Z,49.13
2022-07-30T16:39:55.890Z,43.20
2022-07-30T16:42:25.821Z,43.85
2022-07-30T16:45:08.499Z,40.88
2022-07-30T16:47:38.407Z,42.25
2022-07-30T16:50:08.559Z,38.42
2022-07-30T16:52:38.992Z,38.08
2022-07-30T16:55:09.113Z,34.80
2022-07-30T16:57:39.419Z,30.42
2022-07-30T17:00:10.098Z,30.00
2022-07-30T17:02:40.596Z,29.05
2022-07-30T17:05:13.859Z,30.00
2022-07-30T17:07:44.073Z,27.48
2022-07-30T17:10:14.304Z,24.75
2022-07-30T17:12:53.526Z,26.55
2022-07-30T17:15:32.429Z,26.95
2022-07-30T17:18:03.737Z,26.05
2022-07-30T17:20:34.129Z,25.15
2022-07-30T17:23:04.096Z,22.02
2022-07-30T17:25:33.989Z,22.13
2022-07-30T17:28:03.963Z,19.52
2022-07-30T17:30:33.847Z,16.45
2022-07-30T17:33:03.836Z,15.52
2022-07-30T17:35:34.069Z,10.43
2022-07-30T17:38:04.159Z,10.85
2022-07-30T17:40:34.723Z,13.25
2022-07-30T17:43:09.416Z,8.48
2022-07-30T17:45:39.714Z,10.95
2022-07-30T17:48:09.875Z,8.75
2022-07-30T17:50:39.745Z,7.38
2022-07-30T17:53:39.930Z,7.82
2022-07-30T17:56:27.111Z,5.47
2022-07-30T17:58:57.327Z,6.53
2022-07-30T18:01:27.873Z,3.40
2022-07-30T18:03:57.766Z,4.25
2022-07-30T18:06:27.969Z,3.10
2022-07-30T18:08:57.970Z,3.95
2022-07-30T18:11:27.847Z,2.72
2022-07-30T18:13:58.484Z,3.70
2022-07-30T18:16:28.391Z,2.95
2022-07-30T18:18:58.366Z,3.08
2022-07-30T18:21:28.636Z,4.20
2022-07-30T18:23:58.545Z,2.72
2022-07-30T18:26:28.408Z,3.35
2022-07-30T18:28:58.693Z,2.38
2022-07-30T18:31:28.556Z,2.88
2022-07-30T18:33:58.563Z,4.47
2022-07-30T18:36:28.963Z,2.90
2022-07-30T18:38:59.266Z,2.90
2022-07-30T18:41:29.605Z,4.45
2022-07-30T18:43:59.542Z,4.03
2022-07-30T18:47:04.957Z,4.45
2022-07-30T18:49:36.977Z,6.90
2022-07-30T18:52:10.692Z,6.95
2022-07-30T18:54:41.032Z,9.80
2022-07-30T18:57:14.306Z,10.15
2022-07-30T18:59:44.812Z,9.40
2022-07-30T19:02:14.691Z,10.80
2022-07-30T19:04:44.681Z,10.35
2022-07-30T19:07:15.784Z,9.25
2022-07-30T19:09:47.891Z,8.65
2022-07-30T19:12:18.003Z,10.77
2022-07-30T19:14:48.421Z,10.57
2022-07-30T19:17:18.310Z,10.80
2022-07-30T19:19:59.604Z,8.23
2022-07-30T19:22:30.180Z,10.77
2022-07-30T19:25:00.197Z,10.88
2022-07-30T19:27:30.057Z,9.32
2022-07-30T19:29:59.953Z,9.82
2022-07-30T19:32:29.860Z,9.27
2022-07-30T19:34:59.725Z,7.90
2022-07-30T19:37:47.438Z,9.98
2022-07-30T19:40:17.350Z,10.68
2022-07-30T19:42:51.045Z,8.85
2022-07-30T19:45:25.548Z,6.38
2022-07-30T19:48:15.403Z,6.38
2022-07-30T19:51:00.808Z,5.60
2022-07-30T19:53:34.113Z,6.90
2022-07-30T19:56:08.340Z,4.57
2022-07-30T19:58:41.355Z,5.22
2022-07-30T20:01:13.837Z,5.65
2022-07-30T20:03:45.792Z,5.22
2022-07-30T20:06:18.877Z,4.30
2022-07-30T20:08:51.108Z,3.53
2022-07-30T20:11:36.128Z,5.90
2022-07-30T20:14:08.171Z,7.85
2022-07-30T20:16:38.082Z,10.23
2022-07-30T20:19:08.332Z,10.75
2022-07-30T20:22:06.875Z,9.85
2022-07-30T20:24:31.291Z,10.05
2022-07-30T20:27:36.219Z,10.57
2022-07-30T20:29:53.149Z,10.57
2022-07-30T20:32:25.033Z,10.20
2022-07-30T20:34:55.032Z,10.25
2022-07-30T20:37:24.966Z,11.10
2022-07-30T20:42:51.291Z,8.60
2022-07-30T20:45:24.435Z,7.88
2022-07-30T20:47:57.842Z,8.60
2022-07-30T20:50:30.976Z,8.65
2022-07-30T20:53:01.703Z,9.18
